Time;durP1;ratioP1;P1;durP2;ratioP2;P2;SDS_P1;SDS_P2;PMS_P1;PMS_P2;Temp;Humidity;BMP_temperature;BMP_pressure;BME280_temperature;BME280_humidity;BME280_pressure;Samples;Min_cycle;Max_cycle;Signal;HPM_P1;HPM_P2
2023/03/01 00:01:12;;;;;;;8.83;4.70;;;-1.80;99.90;;;;;;5083630;28;20250;-84
2023/03/01 00:03:37;;;;;;;7.43;4.73;;;-1.80;99.90;;;;;;5101830;28;20184;-84
2023/03/01 00:06:04;;;;;;;8.57;4.63;;;-1.90;99.90;;;;;;5101213;28;20177;-84
2023/03/01 00:08:30;;;;;;;7.30;4.23;;;-1.90;99.90;;;;;;5101713;28;20497;-84
2023/03/01 00:11:14;;;;;;;6.40;4.40;;;-2.00;99.90;;;;;;5102539;28;20270;-84
2023/03/01 00:13:41;;;;;;;5.30;3.93;;;-2.00;99.90;;;;;;5102230;28;20204;-84
2023/03/01 00:16:09;;;;;;;7.17;4.97;;;-2.00;99.90;;;;;;5101471;28;20659;-84
2023/03/01 00:18:35;;;;;;;7.63;4.10;;;-2.00;99.90;;;;;;5083979;28;20208;-84
2023/03/01 00:21:01;;;;;;;8.40;4.40;;;-2.00;99.90;;;;;;5083979;28;20212;-84
2023/03/01 00:23:27;;;;;;;8.63;5.03;;;-2.00;99.90;;;;;;5083443;28;20175;-83
2023/03/01 00:25:53;;;;;;;6.63;4.50;;;-2.10;99.90;;;;;;5103051;28;20172;-84
2023/03/01 00:28:19;;;;;;;6.50;4.57;;;-2.10;99.90;;;;;;5085144;28;20177;-84
2023/03/01 00:30:45;;;;;;;6.57;5.00;;;-2.20;99.90;;;;;;5102373;28;20202;-84
2023/03/01 00:33:10;;;;;;;7.13;4.80;;;-2.20;99.90;;;;;;5101923;28;20206;-84
2023/03/01 00:35:36;;;;;;;9.67;4.97;;;-2.20;99.90;;;;;;5083951;28;20177;-84
2023/03/01 00:38:03;;;;;;;8.97;5.03;;;-2.20;99.90;;;;;;5083135;28;20184;-84
2023/03/01 00:40:32;;;;;;;8.43;5.03;;;-2.10;99.90;;;;;;5102239;28;20189;-84
2023/03/01 00:42:58;;;;;;;8.43;4.97;;;-2.20;99.90;;;;;;5102200;28;20192;-84
2023/03/01 00:45:24;;;;;;;7.03;5.47;;;-2.20;99.90;;;;;;5101695;28;20173;-84
2023/03/01 00:47:50;;;;;;;10.10;4.93;;;-2.20;99.90;;;;;;5084081;28;20184;-84
2023/03/01 00:50:16;;;;;;;6.13;4.23;;;-2.20;99.90;;;;;;5102885;28;20215;-84
2023/03/01 00:52:41;;;;;;;6.37;4.77;;;-2.20;99.90;;;;;;5084761;28;20207;-84
2023/03/01 00:55:07;;;;;;;6.07;4.77;;;-2.30;99.90;;;;;;5101884;28;20177;-84
2023/03/01 00:57:33;;;;;;;6.40;4.90;;;-2.30;99.90;;;;;;5084377;28;20200;-84
2023/03/01 00:59:59;;;;;;;8.90;5.10;;;-2.30;99.90;;;;;;5083668;28;20184;-84
2023/03/01 01:02:25;;;;;;;6.90;4.63;;;-2.30;99.90;;;;;;5102410;28;20202;-84
2023/03/01 01:04:50;;;;;;;7.20;5.10;;;-2.30;99.90;;;;;;5083716;28;20557;-84
2023/03/01 01:07:16;;;;;;;7.00;4.60;;;-2.30;99.90;;;;;;5084090;28;20188;-84
2023/03/01 01:09:42;;;;;;;7.30;4.97;;;-2.40;99.90;;;;;;5102291;28;20192;-84
2023/03/01 01:12:08;;;;;;;12.17;5.50;;;-2.40;99.90;;;;;;5084631;28;20565;-84
2023/03/01 01:14:34;;;;;;;8.90;5.43;;;-2.40;99.90;;;;;;5102647;28;20201;-84
2023/03/01 01:16:59;;;;;;;8.30;4.93;;;-2.40;99.90;;;;;;5084848;28;20188;-84
2023/03/01 01:19:26;;;;;;;8.53;4.97;;;-2.40;99.90;;;;;;5103813;28;20170;-84
2023/03/01 01:21:52;;;;;;;6.70;5.00;;;-2.50;99.90;;;;;;5085671;28;20269;-84
2023/03/01 01:24:18;;;;;;;9.30;5.30;;;-2.50;99.90;;;;;;5084507;28;20182;-85
2023/03/01 01:26:44;;;;;;;9.27;5.23;;;-2.50;99.90;;;;;;5103586;28;20180;-84
2023/03/01 01:29:10;;;;;;;10.43;5.23;;;-2.50;99.90;;;;;;5084734;28;20177;-85
2023/03/01 01:31:37;;;;;;;8.67;5.53;;;-2.50;99.90;;;;;;5084173;28;20290;-84
2023/03/01 01:34:05;;;;;;;10.50;5.37;;;-2.50;99.90;;;;;;5085624;28;20203;-84
2023/03/01 01:36:31;;;;;;;6.80;5.50;;;-2.50;99.90;;;;;;5104522;28;20209;-83
2023/03/01 01:38:57;;;;;;;6.17;4.83;;;-2.50;99.90;;;;;;5086435;28;20182;-84
2023/03/01 01:41:25;;;;;;;8.20;5.20;;;-2.50;99.90;;;;;;5087983;28;20244;-84
2023/03/01 01:44:09;;;;;;;9.00;5.87;;;-2.60;99.90;;;;;;5097138;28;20165;-84
2023/03/01 01:46:39;;;;;;;7.17;4.80;;;-2.50;99.90;;;;;;5113524;28;20188;-84
2023/03/01 01:49:14;;;;;;;8.53;5.20;;;-2.50;99.90;;;;;;5090505;28;20169;-84
2023/03/01 01:51:43;;;;;;;11.07;5.10;;;-2.60;99.90;;;;;;5086933;28;20204;-84
2023/03/01 01:54:18;;;;;;;10.23;5.87;;;-2.60;99.90;;;;;;5085884;28;20209;-84
2023/03/01 01:56:50;;;;;;;11.90;5.73;;;-2.70;99.90;;;;;;5085410;28;20194;-84
2023/03/01 01:59:16;;;;;;;9.23;6.00;;;-2.70;99.90;;;;;;5086178;28;20176;-83
2023/03/01 02:01:43;;;;;;;8.03;5.57;;;-2.70;99.90;;;;;;5104532;28;20196;-83
2023/03/01 02:04:08;;;;;;;7.10;5.53;;;-2.70;99.90;;;;;;5110701;28;20176;-83
2023/03/01 02:06:39;;;;;;;9.43;5.77;;;-2.80;99.90;;;;;;5097642;28;20161;-83
2023/03/01 02:09:08;;;;;;;8.17;4.97;;;-2.80;99.90;;;;;;5097472;28;20190;-83
2023/03/01 02:11:34;;;;;;;8.87;6.07;;;-2.80;99.90;;;;;;5085555;28;20265;-83
2023/03/01 02:14:00;;;;;;;10.87;6.20;;;-2.80;99.90;;;;;;5084196;28;20228;-81
2023/03/01 02:16:26;;;;;;;8.13;5.10;;;-2.80;99.90;;;;;;5084721;28;20211;-82
2023/03/01 02:18:53;;;;;;;8.77;5.20;;;-2.90;99.90;;;;;;5102691;28;20630;-82
2023/03/01 02:21:50;;;;;;;10.00;5.70;;;-2.90;99.90;;;;;;5085194;28;20195;-83
2023/03/01 02:24:54;;;;;;;9.17;4.80;;;-2.90;99.90;;;;;;5084440;28;20715;-82
2023/03/01 02:27:25;;;;;;;8.67;4.97;;;-2.90;99.90;;;;;;5004598;28;20240;-83
2023/03/01 02:29:50;;;;;;;7.07;5.20;;;-2.90;99.90;;;;;;5089603;28;20189;-82
2023/03/01 02:32:24;;;;;;;6.30;5.17;;;-2.90;99.90;;;;;;5102396;28;20205;-83
2023/03/01 02:34:55;;;;;;;9.73;5.33;;;-2.90;99.90;;;;;;5102078;28;20609;-83
2023/03/01 02:37:24;;;;;;;10.47;5.40;;;-2.90;99.90;;;;;;5101724;28;20245;-83
2023/03/01 02:39:57;;;;;;;10.10;6.20;;;-2.90;99.90;;;;;;5101779;28;20303;-82
2023/03/01 02:42:30;;;;;;;10.77;6.67;;;-3.00;99.90;;;;;;5083266;28;20633;-83
2023/03/01 02:44:56;;;;;;;10.07;5.90;;;-3.00;99.90;;;;;;5101909;28;20160;-83
2023/03/01 02:47:21;;;;;;;8.87;6.00;;;-2.90;99.90;;;;;;5084026;28;20263;-83
2023/03/01 02:49:47;;;;;;;8.83;5.70;;;-3.00;99.90;;;;;;5083146;28;20189;-82
2023/03/01 02:52:33;;;;;;;8.70;5.40;;;-2.90;99.90;;;;;;5102224;28;20667;-83
2023/03/01 02:55:07;;;;;;;8.17;5.60;;;-3.00;99.90;;;;;;5102346;28;20154;-83
2023/03/01 02:57:35;;;;;;;8.60;6.50;;;-3.00;99.90;;;;;;5083497;28;20266;-83
2023/03/01 03:00:18;;;;;;;10.10;6.47;;;-3.00;99.90;;;;;;5084953;28;20193;-83
2023/03/01 03:02:45;;;;;;;7.40;5.50;;;-3.10;99.90;;;;;;5083765;28;20167;-82
2023/03/01 03:05:15;;;;;;;9.90;5.40;;;-3.10;99.90;;;;;;5083353;28;20209;-83
2023/03/01 03:07:43;;;;;;;8.57;6.27;;;-3.10;99.90;;;;;;5101795;28;20634;-82
2023/03/01 03:10:12;;;;;;;8.93;6.20;;;-3.10;99.90;;;;;;5085926;28;20674;-82
2023/03/01 03:12:38;;;;;;;10.17;6.23;;;-3.10;99.90;;;;;;5087092;28;20247;-83
2023/03/01 03:15:08;;;;;;;10.33;6.00;;;-3.10;99.90;;;;;;5087345;28;20212;-82
2023/03/01 03:17:39;;;;;;;9.13;6.13;;;-3.10;99.90;;;;;;5086918;28;20566;-82
2023/03/01 03:20:10;;;;;;;8.07;5.97;;;-3.10;99.90;;;;;;5106375;28;20157;-84
2023/03/01 03:22:37;;;;;;;7.93;6.20;;;-3.10;99.90;;;;;;5089381;28;20189;-83
2023/03/01 03:25:02;;;;;;;8.33;6.60;;;-3.10;99.90;;;;;;5091663;28;20197;-83
2023/03/01 03:27:28;;;;;;;12.33;6.47;;;-3.10;99.90;;;;;;5088509;28;20207;-83
2023/03/01 03:29:54;;;;;;;9.60;5.63;;;-3.10;99.90;;;;;;5105721;28;20307;-82
2023/03/01 03:32:19;;;;;;;8.40;6.70;;;-3.00;99.90;;;;;;5087751;28;20203;-82
2023/03/01 03:34:45;;;;;;;9.67;5.90;;;-3.10;99.90;;;;;;5088140;28;20608;-81
2023/03/01 03:38:01;;;;;;;10.53;6.13;;;-3.00;99.90;;;;;;5088152;28;20170;-82
2023/03/01 03:39:56;;;;;;;12.03;6.47;;;-3.00;99.90;;;;;;5106571;28;20302;-83
2023/03/01 03:42:24;;;;;;;9.07;6.57;;;-3.00;99.90;;;;;;5087077;28;20215;-83
2023/03/01 03:44:49;;;;;;;8.37;6.03;;;-3.10;99.90;;;;;;5106140;28;20253;-82
2023/03/01 03:47:15;;;;;;;7.80;6.10;;;-3.10;99.90;;;;;;5086971;28;20182;-83
2023/03/01 03:49:40;;;;;;;7.67;5.80;;;-3.10;99.90;;;;;;5087507;28;20175;-83
2023/03/01 03:52:13;;;;;;;9.87;6.77;;;-3.10;99.90;;;;;;5086624;28;20194;-83
2023/03/01 03:54:40;;;;;;;10.57;6.67;;;-3.10;99.90;;;;;;5087868;28;20200;-83
2023/03/01 03:57:05;;;;;;;9.87;6.43;;;-3.10;99.90;;;;;;5106640;28;20578;-83
2023/03/01 03:59:31;;;;;;;10.47;6.50;;;-3.10;99.90;;;;;;5109327;28;20174;-84
2023/03/01 04:01:57;;;;;;;10.30;6.80;;;-3.10;99.90;;;;;;5091611;28;20195;-84
2023/03/01 04:04:22;;;;;;;10.47;5.93;;;-3.10;99.90;;;;;;5112299;28;20490;-84
2023/03/01 04:06:48;;;;;;;8.60;6.27;;;-3.20;99.90;;;;;;5091227;28;20188;-82
2023/03/01 04:09:13;;;;;;;10.57;7.37;;;-3.20;99.90;;;;;;5105711;28;20201;-84
2023/03/01 04:11:39;;;;;;;12.10;6.97;;;-3.20;99.90;;;;;;5107508;28;20195;-84
2023/03/01 04:14:04;;;;;;;8.07;6.03;;;-3.20;99.90;;;;;;5086645;28;20723;-83
2023/03/01 04:16:30;;;;;;;10.27;7.17;;;-3.20;99.90;;;;;;5086151;28;20600;-84
2023/03/01 04:18:56;;;;;;;9.93;6.63;;;-3.20;99.90;;;;;;5087006;28;20194;-83
2023/03/01 04:21:22;;;;;;;10.70;6.97;;;-3.20;99.90;;;;;;5103611;28;20669;-84
2023/03/01 04:23:47;;;;;;;13.57;6.57;;;-3.30;99.90;;;;;;5104572;28;20182;-84
2023/03/01 04:26:13;;;;;;;8.30;5.63;;;-3.20;99.90;;;;;;5086088;28;20176;-84
2023/03/01 04:28:42;;;;;;;9.10;6.13;;;-3.30;99.90;;;;;;5104320;28;20499;-83
2023/03/01 04:31:18;;;;;;;10.67;6.40;;;-3.30;99.90;;;;;;5086104;28;20249;-83
2023/03/01 04:33:51;;;;;;;7.87;5.93;;;-3.30;99.90;;;;;;5104523;28;20591;-83
2023/03/01 04:36:17;;;;;;;10.87;6.40;;;-3.30;99.90;;;;;;5104157;28;20505;-84
2023/03/01 04:38:47;;;;;;;11.53;6.70;;;-3.30;99.90;;;;;;5086274;28;20627;-83
2023/03/01 04:41:15;;;;;;;9.47;6.07;;;-3.20;99.90;;;;;;5085623;28;20237;-84
2023/03/01 04:43:41;;;;;;;12.73;7.10;;;-3.30;99.90;;;;;;5104129;28;20179;-83
2023/03/01 04:46:11;;;;;;;9.17;5.97;;;-3.30;99.90;;;;;;5086348;28;20170;-83
2023/03/01 04:48:37;;;;;;;8.53;6.13;;;-3.30;99.90;;;;;;5086193;28;20172;-83
2023/03/01 04:51:03;;;;;;;11.23;6.67;;;-3.30;99.90;;;;;;5084918;28;20229;-84
2023/03/01 04:53:30;;;;;;;11.03;7.50;;;-3.20;99.90;;;;;;5103222;28;20219;-83
2023/03/01 04:55:56;;;;;;;14.50;7.60;;;-3.20;99.90;;;;;;5085750;28;20172;-84
2023/03/01 04:58:23;;;;;;;11.67;7.00;;;-3.20;99.90;;;;;;5086302;28;20176;-83
2023/03/01 05:00:49;;;;;;;13.40;6.53;;;-3.20;99.90;;;;;;5085304;28;20191;-83
2023/03/01 05:03:18;;;;;;;10.93;6.77;;;-3.20;99.90;;;;;;5085034;28;20269;-84
2023/03/01 05:05:44;;;;;;;10.53;7.17;;;-3.30;99.90;;;;;;5084680;28;20185;-84
2023/03/01 05:08:17;;;;;;;10.90;5.97;;;-3.30;99.90;;;;;;5102618;28;20206;-83
2023/03/01 05:10:49;;;;;;;10.27;6.83;;;-3.30;99.90;;;;;;5084679;28;20340;-83
2023/03/01 05:13:20;;;;;;;10.27;6.13;;;-3.30;99.90;;;;;;5085645;28;20261;-83
2023/03/01 05:15:56;;;;;;;11.23;6.73;;;-3.30;99.90;;;;;;5085131;28;20226;-81
2023/03/01 05:18:25;;;;;;;10.57;7.40;;;-3.30;99.90;;;;;;5084678;28;20196;-82
2023/03/01 05:20:52;;;;;;;10.30;6.93;;;-3.30;99.90;;;;;;5084825;28;20194;-82
2023/03/01 05:23:18;;;;;;;11.23;6.83;;;-3.30;99.90;;;;;;5084883;28;20219;-83
2023/03/01 05:25:44;;;;;;;10.20;6.83;;;-3.30;99.90;;;;;;5103187;28;20259;-83
2023/03/01 05:28:11;;;;;;;9.07;6.97;;;-3.30;99.90;;;;;;5102761;28;20183;-84
2023/03/01 05:30:38;;;;;;;10.83;7.27;;;-3.30;99.90;;;;;;5085329;28;20199;-83
2023/03/01 05:33:04;;;;;;;9.67;6.93;;;-3.30;99.90;;;;;;5101974;28;20261;-83
2023/03/01 05:35:32;;;;;;;10.57;6.10;;;-3.40;99.90;;;;;;5085014;28;20172;-83
2023/03/01 05:37:58;;;;;;;10.00;6.57;;;-3.30;99.90;;;;;;5085120;28;20175;-83
2023/03/01 05:40:24;;;;;;;9.90;6.90;;;-3.30;99.90;;;;;;5084532;28;20618;-84
2023/03/01 05:42:56;;;;;;;11.20;6.77;;;-3.30;99.90;;;;;;5084239;28;20202;-83
2023/03/01 05:45:22;;;;;;;12.50;7.30;;;-3.30;99.90;;;;;;5103010;28;20177;-84
2023/03/01 05:47:49;;;;;;;11.40;6.27;;;-3.20;99.90;;;;;;5084516;28;20182;-83
2023/03/01 05:50:28;;;;;;;12.07;6.27;;;-3.30;99.90;;;;;;5084312;28;20176;-84
2023/03/01 05:53:01;;;;;;;10.57;7.23;;;-3.30;99.90;;;;;;5077814;28;20687;-87
2023/03/01 05:55:28;;;;;;;11.00;6.13;;;-3.30;99.90;;;;;;5095059;28;20538;-86
2023/03/01 05:57:54;;;;;;;14.90;7.77;;;-3.30;99.90;;;;;;5095104;28;20167;-85
2023/03/01 06:00:24;;;;;;;13.07;7.27;;;-3.30;99.90;;;;;;5095284;28;20197;-86
2023/03/01 06:02:51;;;;;;;11.53;7.70;;;-3.20;99.90;;;;;;5095148;28;20185;-86
2023/03/01 06:05:17;;;;;;;11.60;7.30;;;-3.20;99.90;;;;;;5077290;28;20186;-84
2023/03/01 06:07:43;;;;;;;12.07;7.87;;;-3.20;99.90;;;;;;5095926;28;20177;-86
2023/03/01 06:10:10;;;;;;;11.83;7.77;;;-3.20;99.90;;;;;;5082043;28;20281;-86
2023/03/01 06:12:38;;;;;;;10.87;7.53;;;-3.20;99.90;;;;;;5081569;28;20176;-87
2023/03/01 06:15:04;;;;;;;11.50;7.17;;;-3.20;99.90;;;;;;5097627;28;20630;-87
2023/03/01 06:17:32;;;;;;;10.80;7.20;;;-3.20;99.90;;;;;;5078209;28;20620;-86
2023/03/01 06:19:57;;;;;;;10.77;7.30;;;-3.20;99.90;;;;;;5088862;28;20176;-86
2023/03/01 06:22:23;;;;;;;10.90;6.97;;;-3.20;99.90;;;;;;5096863;28;20181;-86
2023/03/01 06:24:49;;;;;;;14.60;7.67;;;-3.20;99.90;;;;;;5097298;28;20243;-85
2023/03/01 06:27:15;;;;;;;10.90;7.57;;;-3.20;99.90;;;;;;5094396;28;20174;-84
2023/03/01 06:29:40;;;;;;;10.63;7.10;;;-3.20;99.90;;;;;;5094803;28;20197;-85
2023/03/01 06:32:07;;;;;;;11.47;7.73;;;-3.20;99.90;;;;;;5094053;28;20236;-86
2023/03/01 06:34:33;;;;;;;11.70;7.33;;;-3.20;99.90;;;;;;5076486;28;20201;-86
2023/03/01 06:36:59;;;;;;;10.80;6.83;;;-3.20;99.90;;;;;;5096649;28;20196;-83
2023/03/01 06:39:24;;;;;;;11.30;7.40;;;-3.20;99.90;;;;;;5083716;28;20187;-84
2023/03/01 06:41:50;;;;;;;10.03;7.23;;;-3.10;99.90;;;;;;5082175;28;20608;-82
2023/03/01 06:44:15;;;;;;;10.93;7.00;;;-3.20;99.90;;;;;;5099224;28;20656;-83
2023/03/01 06:46:41;;;;;;;13.97;7.27;;;-3.10;99.90;;;;;;5100557;28;20264;-83
2023/03/01 06:49:09;;;;;;;9.40;6.60;;;-3.10;99.90;;;;;;5083167;28;20178;-83
2023/03/01 06:51:36;;;;;;;11.50;7.63;;;-3.10;99.90;;;;;;5081917;28;20547;-82
2023/03/01 06:54:02;;;;;;;10.40;6.67;;;-3.10;99.90;;;;;;5081492;28;20730;-81
2023/03/01 06:56:28;;;;;;;11.80;7.67;;;-3.10;99.90;;;;;;5099653;28;20172;-81
2023/03/01 06:58:53;;;;;;;10.13;7.03;;;-3.00;99.90;;;;;;5100198;28;20198;-81
2023/03/01 07:01:19;;;;;;;9.83;6.63;;;-3.10;99.90;;;;;;5081704;28;20227;-82
2023/03/01 07:03:44;;;;;;;11.17;7.33;;;-3.10;99.90;;;;;;5100850;28;20205;-81
2023/03/01 07:06:10;;;;;;;11.33;7.40;;;-3.10;99.90;;;;;;5100869;28;20177;-82
2023/03/01 07:08:36;;;;;;;13.27;8.40;;;-3.10;99.90;;;;;;5080817;28;20606;-82
2023/03/01 07:11:03;;;;;;;11.37;7.90;;;-3.00;99.90;;;;;;5100210;28;20201;-82
2023/03/01 07:13:28;;;;;;;12.07;8.27;;;-2.90;99.90;;;;;;5081758;28;20204;-82
2023/03/01 07:15:54;;;;;;;13.40;8.13;;;-2.90;99.90;;;;;;5099900;28;20183;-81
2023/03/01 07:18:19;;;;;;;11.80;7.67;;;-2.90;99.90;;;;;;5100030;28;20221;-82
2023/03/01 07:20:45;;;;;;;11.80;7.83;;;-2.80;99.90;;;;;;5099300;28;20191;-82
2023/03/01 07:23:10;;;;;;;16.87;7.97;;;-2.70;99.90;;;;;;5098841;28;20185;-82
2023/03/01 07:25:36;;;;;;;9.60;7.17;;;-2.70;99.90;;;;;;5099215;28;20212;-82
2023/03/01 07:28:02;;;;;;;13.30;8.43;;;-2.70;99.90;;;;;;5081009;28;20207;-82
2023/03/01 07:30:28;;;;;;;10.20;7.63;;;-2.70;99.90;;;;;;5080539;28;20194;-82
2023/03/01 07:32:54;;;;;;;12.03;7.80;;;-2.50;99.90;;;;;;5080912;28;20208;-81
2023/03/01 07:35:20;;;;;;;12.30;8.53;;;-2.60;99.90;;;;;;5080659;28;20179;-82
2023/03/01 07:37:46;;;;;;;10.83;7.53;;;-2.50;99.90;;;;;;5098373;28;20369;-82
2023/03/01 07:40:12;;;;;;;15.90;8.43;;;-2.50;99.90;;;;;;5098343;28;20650;-83
2023/03/01 07:42:38;;;;;;;14.70;9.30;;;-2.40;99.90;;;;;;5099002;28;20166;-82
2023/03/01 07:45:05;;;;;;;13.03;8.63;;;-2.40;99.90;;;;;;5080411;28;20215;-82
2023/03/01 07:47:31;;;;;;;13.07;8.30;;;-2.40;99.90;;;;;;5081056;28;20206;-81
2023/03/01 07:49:57;;;;;;;10.57;7.73;;;-2.30;99.90;;;;;;5081597;28;20213;-81
2023/03/01 07:52:22;;;;;;;15.03;8.10;;;-2.30;99.90;;;;;;5080970;28;20201;-82
2023/03/01 07:54:48;;;;;;;11.60;8.33;;;-2.20;99.90;;;;;;5082581;28;20675;-81
2023/03/01 07:57:13;;;;;;;12.00;8.40;;;-2.20;99.90;;;;;;5102664;28;20180;-82
2023/03/01 07:59:39;;;;;;;12.67;8.93;;;-2.00;99.90;;;;;;5103581;28;20674;-82
2023/03/01 08:02:05;;;;;;;18.57;9.47;;;-2.00;99.90;;;;;;5085288;28;20227;-80
2023/03/01 08:04:31;;;;;;;12.63;9.47;;;-1.90;99.90;;;;;;5085042;28;20181;-81
2023/03/01 08:06:57;;;;;;;12.40;8.83;;;-1.80;99.90;;;;;;5103432;28;20222;-81
2023/03/01 08:09:22;;;;;;;11.70;7.93;;;-1.70;99.90;;;;;;5084445;28;20197;-81
2023/03/01 08:11:48;;;;;;;15.07;9.43;;;-1.70;99.90;;;;;;5084964;28;20204;-80
2023/03/01 08:14:13;;;;;;;13.20;8.30;;;-1.60;99.90;;;;;;5103290;28;20200;-81
2023/03/01 08:16:39;;;;;;;12.67;8.40;;;-1.60;99.90;;;;;;5102388;28;20173;-81
2023/03/01 08:19:06;;;;;;;15.53;8.57;;;-1.50;99.90;;;;;;5101823;28;20180;-81
2023/03/01 08:21:34;;;;;;;14.40;8.90;;;-1.50;99.90;;;;;;5101947;28;20203;-80
2023/03/01 08:24:00;;;;;;;12.73;8.17;;;-1.40;99.90;;;;;;5084038;28;20185;-81
2023/03/01 08:26:26;;;;;;;15.53;8.50;;;-1.30;99.90;;;;;;5083352;28;20185;-80
2023/03/01 08:28:52;;;;;;;18.87;9.70;;;-1.20;99.90;;;;;;5084553;28;20310;-82
2023/03/01 08:31:30;;;;;;;12.50;8.50;;;-1.10;99.90;;;;;;5103627;28;20205;-82
2023/03/01 08:33:59;;;;;;;14.33;9.00;;;-1.00;99.90;;;;;;5103393;28;20271;-82
2023/03/01 08:36:27;;;;;;;14.70;8.40;;;-0.90;99.90;;;;;;5089694;28;20177;-84
2023/03/01 08:38:54;;;;;;;12.40;8.77;;;-0.80;99.90;;;;;;5095241;28;20188;-85
2023/03/01 08:41:19;;;;;;;12.47;8.10;;;-0.70;99.90;;;;;;5095652;28;20220;-81
2023/03/01 08:43:45;;;;;;;12.93;8.37;;;-0.60;99.90;;;;;;5103090;28;20185;-82
2023/03/01 08:46:11;;;;;;;12.10;8.27;;;-0.60;99.90;;;;;;5102472;28;20185;-81
2023/03/01 08:48:36;;;;;;;13.50;7.73;;;-0.50;99.90;;;;;;5102248;28;20243;-82
2023/03/01 08:51:17;;;;;;;13.90;9.07;;;-0.30;99.90;;;;;;5103061;28;20669;-81
2023/03/01 08:53:42;;;;;;;12.27;8.00;;;-0.20;99.90;;;;;;5084108;28;20201;-81
2023/03/01 08:56:09;;;;;;;10.77;7.53;;;-0.10;99.90;;;;;;5084239;28;20265;-81
2023/03/01 08:58:35;;;;;;;12.90;7.80;;;0.10;99.90;;;;;;5102225;28;20252;-81
2023/03/01 09:01:01;;;;;;;10.27;7.37;;;0.10;99.90;;;;;;5083952;28;20228;-82
2023/03/01 09:03:27;;;;;;;9.63;7.13;;;0.20;99.90;;;;;;5083711;28;20184;-81
2023/03/01 09:05:53;;;;;;;11.57;7.30;;;0.40;99.90;;;;;;5083400;28;20182;-81
2023/03/01 09:08:19;;;;;;;12.47;6.63;;;0.50;99.90;;;;;;5101360;28;20277;-82
2023/03/01 09:10:45;;;;;;;9.43;6.77;;;0.60;99.90;;;;;;5082998;28;20221;-82
2023/03/01 09:13:10;;;;;;;13.20;7.37;;;0.60;98.00;;;;;;5084348;28;20284;-81
2023/03/01 09:15:39;;;;;;;14.20;7.37;;;0.70;43.30;;;;;;5084320;28;20184;-82
2023/03/01 09:18:05;;;;;;;9.43;6.23;;;0.80;36.70;;;;;;5083460;28;20204;-82
2023/03/01 09:20:31;;;;;;;9.50;6.50;;;0.90;43.60;;;;;;5102314;28;20185;-82
2023/03/01 09:22:57;;;;;;;10.23;6.63;;;1.00;17.40;;;;;;5083874;28;20181;-82
2023/03/01 09:25:24;;;;;;;12.63;7.00;;;1.00;1.00;;;;;;5083650;28;20181;-82
2023/03/01 09:27:53;;;;;;;11.00;6.77;;;1.20;1.00;;;;;;5100539;28;20182;-81
2023/03/01 09:30:18;;;;;;;8.80;6.90;;;1.20;1.00;;;;;;5081716;28;20205;-82
2023/03/01 09:32:44;;;;;;;13.83;6.73;;;1.70;1.00;;;;;;5100111;28;20198;-82
2023/03/01 09:35:10;;;;;;;11.03;6.43;;;1.40;1.00;;;;;;5082151;28;20733;-80
2023/03/01 09:37:44;;;;;;;9.83;6.60;;;1.50;1.00;;;;;;5082095;28;20175;-82
2023/03/01 09:40:16;;;;;;;11.33;6.33;;;1.50;1.00;;;;;;5100728;28;20169;-82
2023/03/01 09:42:55;;;;;;;9.73;6.10;;;1.70;1.00;;;;;;5100083;28;20208;-82
2023/03/01 09:45:44;;;;;;;13.70;7.00;;;1.70;1.00;;;;;;5099783;28;20229;-82
2023/03/01 09:48:23;;;;;;;11.73;6.27;;;1.90;1.00;;;;;;5081721;28;20174;-82
2023/03/01 09:50:49;;;;;;;10.03;6.33;;;2.00;1.00;;;;;;5100088;28;20186;-80
2023/03/01 09:53:26;;;;;;;9.17;5.90;;;2.10;1.00;;;;;;5081470;28;20205;-82
2023/03/01 09:55:58;;;;;;;11.00;5.97;;;2.10;1.00;;;;;;5082442;28;20207;-81
2023/03/01 09:58:30;;;;;;;9.93;5.67;;;2.30;1.00;;;;;;5101346;28;20245;-81
2023/03/01 10:01:02;;;;;;;8.60;6.03;;;2.30;99.90;;;;;;5081510;28;20715;-81
2023/03/01 10:03:41;;;;;;;13.40;6.00;;;2.40;99.90;;;;;;5099411;28;20208;-82
2023/03/01 10:06:23;;;;;;;9.13;6.03;;;2.50;99.90;;;;;;5100004;28;20555;-81
2023/03/01 10:08:59;;;;;;;9.20;6.20;;;2.60;96.90;;;;;;5081183;28;20281;-81
2023/03/01 10:11:36;;;;;;;10.20;6.13;;;2.60;48.50;;;;;;5081888;28;20197;-83
2023/03/01 10:14:07;;;;;;;10.03;6.40;;;2.70;12.20;;;;;;5082614;28;20704;-83
2023/03/01 10:16:41;;;;;;;10.53;6.20;;;2.80;1.00;;;;;;5082932;28;20543;-83
2023/03/01 10:19:13;;;;;;;11.10;5.77;;;2.80;4.70;;;;;;5083489;28;20177;-83
2023/03/01 10:21:45;;;;;;;8.87;5.93;;;2.90;1.00;;;;;;5084251;28;20670;-83
2023/03/01 10:24:16;;;;;;;8.20;5.93;;;2.90;1.00;;;;;;5101798;28;20629;-84
2023/03/01 10:26:48;;;;;;;9.03;5.27;;;3.00;1.00;;;;;;5082737;28;20176;-83
2023/03/01 10:29:14;;;;;;;8.83;5.70;;;3.10;15.00;;;;;;5084008;28;20217;-83
2023/03/01 10:31:42;;;;;;;7.23;5.53;;;3.10;14.00;;;;;;5083423;28;20281;-82
2023/03/01 10:34:18;;;;;;;10.97;6.20;;;3.10;37.50;;;;;;5082940;28;20198;-83
2023/03/01 10:36:48;;;;;;;8.60;6.30;;;3.20;23.50;;;;;;5082194;28;20208;-83
2023/03/01 10:39:20;;;;;;;8.97;5.47;;;3.30;1.00;;;;;;5083478;28;20174;-83
2023/03/01 10:41:57;;;;;;;9.40;5.87;;;3.30;1.00;;;;;;5083406;28;20194;-83
2023/03/01 10:44:47;;;;;;;8.57;5.57;;;3.40;1.00;;;;;;5083423;28;20173;-83
2023/03/01 10:47:20;;;;;;;8.30;5.63;;;3.50;1.00;;;;;;5083803;28;20174;-82
2023/03/01 10:50:17;;;;;;;8.37;5.20;;;3.60;1.00;;;;;;5102234;28;20170;-83
2023/03/01 10:53:00;;;;;;;7.90;5.50;;;3.60;1.00;;;;;;5101807;28;20170;-83
2023/03/01 10:55:38;;;;;;;8.20;5.47;;;3.70;1.00;;;;;;5089317;28;20174;-83
2023/03/01 10:58:07;;;;;;;7.10;5.27;;;3.80;1.00;;;;;;5085152;28;20169;-82
2023/03/01 11:00:33;;;;;;;7.37;5.33;;;3.90;1.00;;;;;;5082051;28;20247;-83
2023/03/01 11:02:58;;;;;;;8.97;5.23;;;3.90;1.00;;;;;;5082571;28;20174;-82
2023/03/01 11:05:28;;;;;;;8.00;5.30;;;3.90;1.00;;;;;;5100516;28;20170;-83
2023/03/01 11:07:56;;;;;;;6.77;5.10;;;4.00;1.00;;;;;;5100201;28;20525;-82
2023/03/01 11:10:33;;;;;;;7.50;4.93;;;4.00;1.00;;;;;;5102163;28;20206;-83
2023/03/01 11:13:19;;;;;;;9.37;5.50;;;4.10;1.00;;;;;;5100967;28;20201;-83
2023/03/01 11:16:02;;;;;;;7.73;5.70;;;4.10;1.00;;;;;;5082663;28;20170;-82
2023/03/01 11:18:30;;;;;;;11.00;5.33;;;4.20;1.00;;;;;;5100789;28;20178;-82
2023/03/01 11:20:57;;;;;;;7.33;4.87;;;4.30;99.90;;;;;;5101881;28;20718;-83
2023/03/01 11:23:24;;;;;;;8.67;4.83;;;4.30;1.00;;;;;;5083708;28;20179;-82
2023/03/01 11:25:59;;;;;;;8.87;5.37;;;4.30;1.00;;;;;;5088832;28;20214;-82
2023/03/01 11:28:27;;;;;;;7.17;4.70;;;4.40;1.00;;;;;;5095268;28;20170;-83
2023/03/01 11:31:09;;;;;;;10.27;5.73;;;4.40;1.00;;;;;;5097618;28;20194;-82
2023/03/01 11:33:46;;;;;;;8.27;4.93;;;4.60;99.90;;;;;;5087368;28;20202;-85
2023/03/01 11:36:41;;;;;;;7.63;4.93;;;4.50;1.00;;;;;;5103949;28;20181;-83
2023/03/01 11:39:23;;;;;;;6.40;4.73;;;4.60;1.00;;;;;;5085692;28;20273;-82
2023/03/01 11:41:56;;;;;;;7.70;4.53;;;4.70;99.90;;;;;;5084789;28;20194;-83
2023/03/01 11:44:28;;;;;;;6.93;4.90;;;4.70;99.90;;;;;;5102623;28;20174;-84
2023/03/01 11:47:02;;;;;;;7.20;4.70;;;4.80;99.90;;;;;;5083428;28;20182;-81
2023/03/01 11:49:36;;;;;;;7.67;4.83;;;4.80;99.90;;;;;;5082351;28;20181;-83
2023/03/01 11:52:50;;;;;;;6.33;4.73;;;4.90;99.90;;;;;;5083293;28;20197;-83
2023/03/01 11:56:01;;;;;;;6.30;3.83;;;4.90;99.90;;;;;;5090228;28;20216;-83
2023/03/01 11:58:34;;;;;;;9.20;4.30;;;5.00;91.20;;;;;;5082499;28;20170;-83
2023/03/01 12:01:18;;;;;;;5.00;3.93;;;5.00;99.90;;;;;;5099946;28;20267;-84
2023/03/01 12:03:50;;;;;;;7.13;4.50;;;5.00;99.90;;;;;;5079711;28;20345;-84
2023/03/01 12:06:35;;;;;;;7.20;4.23;;;5.10;13.60;;;;;;5098917;28;20235;-84
2023/03/01 12:09:14;;;;;;;5.20;3.93;;;5.10;1.00;;;;;;5080997;28;20194;-83
2023/03/01 12:12:21;;;;;;;5.67;3.67;;;5.20;1.00;;;;;;5100314;28;20264;-80
2023/03/01 12:15:07;;;;;;;6.00;3.80;;;5.20;1.00;;;;;;5100659;28;20684;-81
2023/03/01 12:17:59;;;;;;;8.57;4.30;;;5.30;1.00;;;;;;5100791;28;20158;-81
2023/03/01 12:20:51;;;;;;;8.57;4.40;;;5.30;96.10;;;;;;5100778;28;20194;-80
2023/03/01 12:23:26;;;;;;;6.80;4.13;;;5.30;7.60;;;;;;5081850;28;20268;-80
2023/03/01 12:26:17;;;;;;;7.50;4.57;;;5.40;1.00;;;;;;5101249;28;20157;-80
2023/03/01 12:29:00;;;;;;;6.37;3.93;;;5.50;1.00;;;;;;5101832;28;20171;-81
2023/03/01 12:31:46;;;;;;;7.67;4.70;;;5.50;1.00;;;;;;5083896;28;20258;-81
2023/03/01 12:34:43;;;;;;;7.77;4.33;;;5.60;99.90;;;;;;5083518;28;20201;-82
2023/03/01 12:37:09;;;;;;;7.27;3.40;;;5.50;1.00;;;;;;5084154;28;20194;-80
2023/03/01 12:39:45;;;;;;;8.03;4.40;;;5.50;1.00;;;;;;5101505;28;20537;-82
2023/03/01 12:42:13;;;;;;;5.93;4.03;;;5.60;2.00;;;;;;5083393;28;20595;-80
2023/03/01 12:45:01;;;;;;;9.13;4.30;;;5.50;1.00;;;;;;5101594;28;20174;-81
2023/03/01 12:48:18;;;;;;;7.03;4.10;;;5.60;99.90;;;;;;5101819;28;20159;-81
2023/03/01 12:50:52;;;;;;;6.80;4.03;;;5.70;1.00;;;;;;5019396;28;20197;-81
2023/03/01 12:53:28;;;;;;;6.33;4.27;;;5.80;1.00;;;;;;5098450;28;20224;-80
2023/03/01 12:55:58;;;;;;;7.00;4.20;;;5.80;1.00;;;;;;5081876;28;20649;-80
2023/03/01 12:58:45;;;;;;;6.57;3.70;;;5.80;1.00;;;;;;5101864;28;20170;-81
2023/03/01 13:01:26;;;;;;;7.37;4.60;;;5.90;99.90;;;;;;5083513;28;20197;-80
2023/03/01 13:04:19;;;;;;;7.23;3.90;;;5.90;99.90;;;;;;5101901;28;20163;-80